createdAt,value
2023-03-24T00:01:35.036Z,100.00
2023-03-24T00:04:01.943Z,100.00
2023-03-24T00:06:28.790Z,100.00
2023-03-24T00:08:55.734Z,100.00
2023-03-24T00:11:22.641Z,100.00
2023-03-24T00:13:50.919Z,100.00
2023-03-24T00:16:19.596Z,100.00
2023-03-24T00:18:50.600Z,100.00
2023-03-24T00:21:18.562Z,100.00
2023-03-24T00:23:47.894Z,100.00
2023-03-24T00:26:15.731Z,100.00
2023-03-24T00:28:44.189Z,100.00
2023-03-24T00:31:11.210Z,100.00
2023-03-24T00:33:38.210Z,100.00
2023-03-24T00:36:07.038Z,100.00
2023-03-24T00:38:34.760Z,100.00
2023-03-24T00:41:02.070Z,100.00
2023-03-24T00:43:29.466Z,100.00
2023-03-24T00:46:08.226Z,100.00
2023-03-24T00:48:35.050Z,100.00
2023-03-24T00:51:03.039Z,100.00
2023-03-24T00:53:30.080Z,100.00
2023-03-24T00:55:57.034Z,100.00
2023-03-24T00:58:23.837Z,100.00
2023-03-24T01:00:52.535Z,100.00
2023-03-24T01:03:22.126Z,100.00
2023-03-24T01:05:49.128Z,100.00
2023-03-24T01:08:20.374Z,100.00
2023-03-24T01:10:57.591Z,100.00
2023-03-24T01:13:27.060Z,100.00
2023-03-24T01:15:54.140Z,100.00
2023-03-24T01:18:21.432Z,100.00
2023-03-24T01:20:49.310Z,100.00
2023-03-24T01:23:22.666Z,100.00
2023-03-24T01:25:50.200Z,100.00
2023-03-24T01:28:21.793Z,100.00
2023-03-24T01:30:49.841Z,100.00
2023-03-24T01:33:16.658Z,100.00
2023-03-24T01:35:43.645Z,100.00
2023-03-24T01:38:11.995Z,100.00
2023-03-24T01:40:40.815Z,100.00
2023-03-24T01:43:08.986Z,100.00
2023-03-24T01:45:39.192Z,100.00
2023-03-24T01:48:14.102Z,100.00
2023-03-24T01:50:40.906Z,100.00
2023-03-24T01:53:07.656Z,100.00
2023-03-24T01:55:34.412Z,100.00
2023-03-24T01:58:02.141Z,100.00
2023-03-24T02:00:28.998Z,100.00
2023-03-24T02:02:58.804Z,100.00
2023-03-24T02:05:31.851Z,100.00
2023-03-24T02:08:22.620Z,100.00
2023-03-24T02:10:49.680Z,100.00
2023-03-24T02:13:16.489Z,100.00
2023-03-24T02:16:12.268Z,100.00
2023-03-24T02:18:46.601Z,100.00
2023-03-24T02:21:17.027Z,100.00
2023-03-24T02:24:07.799Z,100.00
2023-03-24T02:26:58.754Z,100.00
2023-03-24T02:30:04.333Z,100.00
2023-03-24T02:33:09.639Z,100.00
2023-03-24T02:35:59.722Z,100.00
2023-03-24T02:38:41.421Z,100.00
2023-03-24T02:41:28.565Z,100.00
2023-03-24T02:44:35.166Z,100.00
2023-03-24T02:47:04.013Z,100.00
2023-03-24T02:49:37.082Z,100.00
2023-03-24T02:52:23.987Z,100.00
2023-03-24T02:55:01.067Z,100.00
2023-03-24T02:57:36.910Z,100.00
2023-03-24T03:00:28.618Z,100.00
2023-03-24T03:03:03.061Z,100.00
2023-03-24T03:05:37.807Z,100.00
2023-03-24T03:08:06.246Z,100.00
2023-03-24T03:10:36.039Z,100.00
2023-03-24T03:13:03.265Z,100.00
2023-03-24T03:15:33.162Z,100.00
2023-03-24T03:18:17.986Z,100.00
2023-03-24T03:20:51.050Z,100.00
2023-03-24T03:23:21.476Z,100.00
2023-03-24T03:25:51.148Z,100.00
2023-03-24T03:28:22.185Z,100.00
2023-03-24T03:30:53.439Z,100.00
2023-03-24T03:33:25.450Z,100.00
2023-03-24T03:36:17.019Z,99.24
2023-03-24T03:39:06.884Z,98.81
2023-03-24T03:41:33.578Z,98.59
2023-03-24T03:44:00.750Z,98.63
2023-03-24T03:46:27.717Z,98.83
2023-03-24T03:48:54.520Z,98.94
2023-03-24T03:51:21.365Z,99.13
2023-03-24T03:53:56.658Z,99.42
2023-03-24T03:56:25.989Z,99.57
2023-03-24T03:58:53.668Z,99.36
2023-03-24T04:01:21.979Z,99.46
2023-03-24T04:03:59.424Z,100.00
2023-03-24T04:06:36.269Z,100.00
2023-03-24T04:09:15.015Z,100.00
2023-03-24T04:12:19.265Z,100.00
2023-03-24T04:14:50.045Z,100.00
2023-03-24T04:17:25.899Z,100.00
2023-03-24T04:20:15.938Z,100.00
2023-03-24T04:23:09.747Z,100.00
2023-03-24T04:26:01.666Z,100.00
2023-03-24T04:28:48.258Z,100.00
2023-03-24T04:31:24.586Z,99.13
2023-03-24T04:33:53.021Z,98.07
2023-03-24T04:36:28.293Z,97.97
2023-03-24T04:38:55.256Z,98.09
2023-03-24T04:41:22.063Z,99.83
2023-03-24T04:43:49.116Z,100.00
2023-03-24T04:46:18.483Z,100.00
2023-03-24T04:48:48.233Z,100.00
2023-03-24T04:51:15.566Z,100.00
2023-03-24T04:53:42.371Z,100.00
2023-03-24T04:56:30.961Z,100.00
2023-03-24T04:58:58.816Z,100.00
2023-03-24T05:01:30.311Z,100.00
2023-03-24T05:03:58.626Z,100.00
2023-03-24T05:06:26.047Z,100.00
2023-03-24T05:08:52.970Z,100.00
2023-03-24T05:11:20.802Z,100.00
2023-03-24T05:13:47.770Z,100.00
2023-03-24T05:16:14.649Z,99.09
2023-03-24T05:18:41.615Z,98.51
2023-03-24T05:21:08.360Z,98.00
2023-03-24T05:23:35.441Z,97.61
2023-03-24T05:26:02.432Z,97.24
2023-03-24T05:28:29.273Z,97.41
2023-03-24T05:30:56.289Z,97.42
2023-03-24T05:33:23.272Z,97.43
2023-03-24T05:35:50.043Z,97.60
2023-03-24T05:38:16.896Z,97.45
2023-03-24T05:40:43.792Z,97.76
2023-03-24T05:43:12.363Z,97.62
2023-03-24T05:45:39.339Z,97.81
2023-03-24T05:48:06.472Z,97.76
2023-03-24T05:50:33.685Z,97.96
2023-03-24T05:53:01.046Z,97.87
2023-03-24T05:55:28.021Z,97.85
2023-03-24T05:57:55.786Z,97.63
2023-03-24T06:00:23.531Z,97.52
2023-03-24T06:02:50.968Z,97.68
2023-03-24T06:05:17.988Z,97.56
2023-03-24T06:07:44.828Z,97.80
2023-03-24T06:10:11.899Z,97.81
2023-03-24T06:12:38.898Z,97.74
2023-03-24T06:15:06.175Z,97.87
2023-03-24T06:17:33.050Z,97.52
2023-03-24T06:20:06.121Z,97.71
2023-03-24T06:22:33.364Z,98.15
2023-03-24T06:25:00.131Z,98.15
2023-03-24T06:27:30.345Z,97.99
2023-03-24T06:29:57.825Z,98.21
2023-03-24T06:32:25.588Z,98.47
2023-03-24T06:34:52.925Z,98.35
2023-03-24T06:37:21.378Z,98.62
2023-03-24T06:39:48.423Z,98.70
2023-03-24T06:42:15.306Z,98.65
2023-03-24T06:44:42.258Z,98.55
2023-03-24T06:47:08.974Z,98.84
2023-03-24T06:49:37.279Z,98.73
2023-03-24T06:52:04.989Z,98.90
2023-03-24T06:54:31.865Z,98.91
2023-03-24T06:56:58.740Z,98.81
2023-03-24T06:59:25.761Z,99.22
2023-03-24T07:01:53.411Z,99.08
2023-03-24T07:04:25.849Z,98.82
2023-03-24T07:07:05.590Z,98.46
2023-03-24T07:09:40.771Z,98.35
2023-03-24T07:12:07.660Z,98.25
2023-03-24T07:14:34.406Z,98.22
2023-03-24T07:17:02.231Z,98.60
2023-03-24T07:19:29.072Z,98.77
2023-03-24T07:21:56.020Z,98.55
2023-03-24T07:24:23.128Z,98.80
2023-03-24T07:26:49.918Z,98.67
2023-03-24T07:29:16.666Z,98.75
2023-03-24T07:31:43.572Z,98.84
2023-03-24T07:34:10.460Z,99.20
2023-03-24T07:36:37.245Z,99.48
2023-03-24T07:39:05.203Z,99.92
2023-03-24T07:41:32.763Z,100.00
2023-03-24T07:43:59.615Z,100.00
2023-03-24T07:46:26.672Z,99.88
2023-03-24T07:48:53.471Z,99.77
2023-03-24T07:51:20.346Z,99.44
2023-03-24T07:53:47.898Z,99.62
2023-03-24T07:56:15.999Z,99.71
2023-03-24T07:58:42.809Z,100.00
2023-03-24T08:01:13.083Z,100.00
2023-03-24T08:03:41.115Z,100.00
2023-03-24T08:06:08.799Z,100.00
2023-03-24T08:08:35.874Z,100.00
2023-03-24T08:11:03.651Z,100.00
2023-03-24T08:13:30.697Z,100.00
2023-03-24T08:15:57.499Z,100.00
2023-03-24T08:18:25.316Z,100.00
2023-03-24T08:20:56.024Z,100.00
2023-03-24T08:23:22.971Z,100.00
2023-03-24T08:25:50.327Z,100.00
2023-03-24T08:28:17.287Z,100.00
2023-03-24T08:30:44.243Z,100.00
2023-03-24T08:33:12.696Z,100.00
2023-03-24T08:35:39.953Z,100.00
2023-03-24T08:38:08.214Z,100.00
2023-03-24T08:40:35.859Z,100.00
2023-03-24T08:43:04.449Z,100.00
2023-03-24T08:45:32.539Z,100.00
2023-03-24T08:48:00.543Z,100.00
2023-03-24T08:50:29.440Z,100.00
2023-03-24T08:52:56.772Z,100.00
2023-03-24T08:55:24.051Z,100.00
2023-03-24T08:57:51.162Z,100.00
2023-03-24T09:00:18.852Z,100.00
2023-03-24T09:02:46.806Z,100.00
2023-03-24T09:05:13.965Z,100.00
2023-03-24T09:07:40.770Z,100.00
2023-03-24T09:10:08.839Z,100.00
2023-03-24T09:12:36.468Z,100.00
2023-03-24T09:15:03.909Z,100.00
2023-03-24T09:17:32.689Z,100.00
2023-03-24T09:20:01.411Z,100.00
2023-03-24T09:22:29.097Z,100.00
2023-03-24T09:24:55.910Z,100.00
2023-03-24T09:27:23.537Z,100.00
2023-03-24T09:29:50.932Z,100.00
2023-03-24T09:32:17.795Z,100.00
2023-03-24T09:34:44.608Z,100.00
2023-03-24T09:37:11.517Z,100.00
2023-03-24T09:39:38.698Z,100.00
2023-03-24T09:42:06.255Z,100.00
2023-03-24T09:44:44.441Z,100.00
2023-03-24T09:47:26.381Z,100.00
2023-03-24T09:49:53.262Z,100.00
2023-03-24T09:52:23.573Z,100.00
2023-03-24T09:54:50.300Z,100.00
2023-03-24T09:57:21.371Z,100.00
2023-03-24T09:59:48.330Z,100.00
2023-03-24T10:02:16.839Z,100.00
2023-03-24T10:04:43.722Z,100.00
2023-03-24T10:07:30.944Z,100.00
2023-03-24T10:09:59.607Z,100.00
2023-03-24T10:12:32.842Z,100.00
2023-03-24T10:15:27.512Z,100.00
2023-03-24T10:18:37.255Z,100.00
2023-03-24T10:21:10.353Z,100.00
2023-03-24T10:23:46.328Z,100.00
2023-03-24T10:26:49.798Z,100.00
2023-03-24T10:29:25.990Z,100.00
2023-03-24T10:31:57.941Z,100.00
2023-03-24T10:34:29.283Z,100.00
2023-03-24T10:36:58.522Z,100.00
2023-03-24T10:39:38.043Z,100.00
2023-03-24T10:42:28.858Z,100.00
2023-03-24T10:44:56.073Z,100.00
2023-03-24T10:47:27.820Z,100.00
2023-03-24T10:50:11.944Z,100.00
2023-03-24T10:52:40.839Z,100.00
2023-03-24T10:55:08.213Z,100.00
2023-03-24T10:57:35.253Z,100.00
2023-03-24T11:00:19.197Z,100.00
2023-03-24T11:02:46.466Z,100.00
2023-03-24T11:05:20.719Z,100.00
2023-03-24T11:07:49.076Z,100.00
2023-03-24T11:10:19.891Z,100.00
2023-03-24T11:12:58.128Z,100.00
2023-03-24T11:15:29.227Z,100.00
2023-03-24T11:17:57.857Z,100.00
2023-03-24T11:20:33.341Z,98.69
2023-03-24T11:23:01.841Z,99.10
2023-03-24T11:25:34.405Z,98.62
2023-03-24T11:28:04.311Z,99.04
2023-03-24T11:30:35.715Z,97.97
2023-03-24T11:33:04.085Z,97.37
2023-03-24T11:35:41.378Z,96.51
2023-03-24T11:38:08.846Z,95.46
2023-03-24T11:40:36.024Z,95.14
2023-03-24T11:43:04.357Z,94.49
2023-03-24T11:45:41.544Z,94.15
2023-03-24T11:48:19.827Z,92.61
2023-03-24T11:50:46.585Z,93.44
2023-03-24T11:53:19.284Z,94.86
2023-03-24T11:56:08.298Z,95.13
2023-03-24T11:59:19.789Z,95.19
2023-03-24T12:02:36.453Z,94.16
2023-03-24T12:05:23.269Z,93.31
2023-03-24T12:08:01.358Z,94.32
2023-03-24T12:10:34.044Z,95.36
2023-03-24T12:13:22.025Z,94.39
2023-03-24T12:16:14.525Z,94.94
2023-03-24T12:18:56.694Z,94.03
2023-03-24T12:21:26.518Z,94.30
2023-03-24T12:24:00.142Z,95.25
2023-03-24T12:26:30.900Z,94.80
2023-03-24T12:29:16.566Z,91.40
2023-03-24T12:32:12.462Z,92.12
2023-03-24T12:35:10.328Z,92.88
2023-03-24T12:38:02.293Z,92.54
2023-03-24T12:40:51.594Z,91.74
2023-03-24T12:43:47.580Z,89.66
2023-03-24T12:46:20.808Z,89.16
2023-03-24T12:49:02.841Z,87.01
2023-03-24T12:51:45.523Z,85.42
2023-03-24T12:54:37.256Z,82.53
2023-03-24T12:57:13.340Z,79.59
2023-03-24T12:59:45.857Z,77.57
2023-03-24T13:02:35.755Z,65.47
2023-03-24T13:05:05.801Z,60.98
2023-03-24T13:07:35.402Z,56.52
2023-03-24T13:10:14.049Z,53.70
2023-03-24T13:12:49.867Z,53.66
2023-03-24T13:15:36.622Z,51.05
2023-03-24T13:18:09.667Z,47.25
2023-03-24T13:20:43.960Z,47.52
2023-03-24T13:23:31.507Z,47.33
2023-03-24T13:26:06.777Z,47.86
2023-03-24T13:28:48.858Z,47.09
2023-03-24T13:31:15.720Z,47.35
2023-03-24T13:33:44.965Z,47.57
2023-03-24T13:36:15.082Z,49.34
2023-03-24T13:38:44.099Z,48.60
2023-03-24T13:41:14.283Z,49.19
2023-03-24T13:43:48.149Z,49.47
2023-03-24T13:46:14.989Z,50.36
2023-03-24T13:48:43.497Z,50.11
2023-03-24T13:51:20.348Z,50.01
2023-03-24T13:53:51.409Z,50.67
2023-03-24T13:56:32.800Z,50.06
2023-03-24T13:58:59.558Z,49.80
2023-03-24T14:01:35.031Z,50.02
2023-03-24T14:04:20.151Z,50.35
2023-03-24T14:06:48.717Z,50.98
2023-03-24T14:09:24.590Z,50.42
2023-03-24T14:11:57.402Z,51.57
2023-03-24T14:14:26.020Z,51.87
2023-03-24T14:17:11.171Z,51.63
2023-03-24T14:20:02.227Z,51.73
2023-03-24T14:22:35.508Z,51.81
2023-03-24T14:25:05.182Z,52.89
2023-03-24T14:27:41.169Z,53.89
2023-03-24T14:30:14.101Z,53.00
2023-03-24T14:32:45.226Z,52.49
2023-03-24T14:35:27.383Z,52.62
2023-03-24T14:37:56.536Z,52.46
2023-03-24T14:40:29.833Z,52.17
2023-03-24T14:43:02.400Z,52.71
2023-03-24T14:45:41.020Z,52.02
2023-03-24T14:48:23.186Z,52.00
2023-03-24T14:50:50.785Z,51.91
2023-03-24T14:53:21.200Z,52.16
2023-03-24T14:55:48.555Z,52.57
2023-03-24T14:58:30.506Z,52.74
2023-03-24T15:01:07.060Z,52.85
2023-03-24T15:03:50.521Z,52.82
2023-03-24T15:06:19.253Z,52.92
2023-03-24T15:08:53.256Z,53.36
2023-03-24T15:11:31.095Z,53.94
2023-03-24T15:13:59.018Z,53.88
2023-03-24T15:16:27.999Z,53.87
2023-03-24T15:19:01.988Z,53.62
2023-03-24T15:21:36.989Z,53.06
2023-03-24T15:24:25.080Z,52.80
2023-03-24T15:26:56.067Z,52.88
2023-03-24T15:29:23.528Z,53.54
2023-03-24T15:31:50.498Z,53.32
2023-03-24T15:34:36.274Z,53.32
2023-03-24T15:37:05.713Z,52.97
2023-03-24T15:39:37.485Z,53.09
2023-03-24T15:42:10.584Z,52.98
2023-03-24T15:44:38.965Z,53.86
2023-03-24T15:47:11.528Z,53.80
2023-03-24T15:49:45.886Z,52.94
2023-03-24T15:52:26.160Z,52.85
2023-03-24T15:55:07.557Z,52.55
2023-03-24T15:57:39.503Z,52.21
2023-03-24T16:00:12.179Z,52.12
2023-03-24T16:02:53.724Z,52.49
2023-03-24T16:05:27.180Z,52.88
2023-03-24T16:08:08.038Z,52.84
2023-03-24T16:10:39.696Z,53.16
2023-03-24T16:13:18.692Z,53.26
2023-03-24T16:15:56.203Z,53.15
2023-03-24T16:18:34.399Z,53.23
2023-03-24T16:21:02.465Z,53.23
2023-03-24T16:23:30.621Z,53.03
2023-03-24T16:25:57.552Z,53.45
2023-03-24T16:28:25.260Z,53.26
2023-03-24T16:31:03.241Z,53.87
2023-03-24T16:33:33.221Z,53.56
2023-03-24T16:36:00.917Z,53.51
2023-03-24T16:38:27.907Z,54.17
2023-03-24T16:40:56.281Z,54.48
2023-03-24T16:43:23.122Z,54.17
2023-03-24T16:45:50.291Z,53.69
2023-03-24T16:48:17.651Z,53.48
2023-03-24T16:50:45.684Z,53.42
2023-03-24T16:53:12.570Z,53.58
2023-03-24T16:55:41.463Z,53.52
2023-03-24T16:58:08.504Z,54.11
2023-03-24T17:00:37.246Z,53.83
2023-03-24T17:03:04.898Z,53.91
2023-03-24T17:05:47.019Z,53.85
2023-03-24T17:08:14.714Z,54.01
2023-03-24T17:10:42.286Z,54.23
2023-03-24T17:13:10.003Z,54.30
2023-03-24T17:15:36.736Z,54.21
2023-03-24T17:18:04.462Z,54.23
2023-03-24T17:20:31.475Z,54.18
2023-03-24T17:22:58.627Z,54.56
2023-03-24T17:25:29.339Z,54.47
2023-03-24T17:27:57.643Z,54.51
2023-03-24T17:30:26.276Z,54.50
2023-03-24T17:32:54.816Z,54.70
2023-03-24T17:35:22.853Z,54.74
2023-03-24T17:37:49.692Z,54.53
2023-03-24T17:40:17.851Z,54.48
2023-03-24T17:42:46.674Z,54.27
2023-03-24T17:45:15.864Z,54.11
2023-03-24T17:47:42.759Z,54.22
2023-03-24T17:50:10.114Z,54.58
2023-03-24T17:52:41.475Z,54.50
2023-03-24T17:55:08.710Z,54.59
2023-03-24T17:57:35.566Z,54.86
2023-03-24T18:00:02.409Z,55.21
2023-03-24T18:02:29.261Z,55.78
2023-03-24T18:04:56.232Z,55.43
2023-03-24T18:07:23.249Z,55.22
2023-03-24T18:09:50.280Z,55.38
2023-03-24T18:12:18.164Z,55.37
2023-03-24T18:14:45.550Z,55.71
2023-03-24T18:17:12.552Z,55.90
2023-03-24T18:19:40.467Z,55.92
2023-03-24T18:22:07.383Z,55.99
2023-03-24T18:24:34.422Z,55.92
2023-03-24T18:27:01.504Z,56.02
2023-03-24T18:29:28.483Z,56.52
2023-03-24T18:31:55.242Z,56.66
2023-03-24T18:34:23.308Z,56.98
2023-03-24T18:36:50.240Z,56.85
2023-03-24T18:39:17.637Z,57.18
2023-03-24T18:41:44.568Z,57.90
2023-03-24T18:44:12.697Z,57.58
2023-03-24T18:46:39.651Z,57.93
2023-03-24T18:49:07.357Z,58.17
2023-03-24T18:51:35.667Z,58.15
2023-03-24T18:54:02.610Z,58.30
2023-03-24T18:56:29.608Z,58.81
2023-03-24T18:58:56.399Z,58.79
2023-03-24T19:01:23.375Z,59.22
2023-03-24T19:03:50.985Z,59.16
2023-03-24T19:06:18.121Z,59.32
2023-03-24T19:08:46.259Z,59.61
2023-03-24T19:11:14.055Z,59.61
2023-03-24T19:13:41.198Z,59.74
2023-03-24T19:16:09.165Z,59.86
2023-03-24T19:18:36.675Z,60.44
2023-03-24T19:21:04.004Z,60.34
2023-03-24T19:23:30.971Z,60.48
2023-03-24T19:25:57.804Z,60.93
2023-03-24T19:28:27.255Z,61.03
2023-03-24T19:30:54.038Z,60.92
2023-03-24T19:33:21.046Z,61.47
2023-03-24T19:35:51.831Z,61.47
2023-03-24T19:38:21.268Z,61.71
2023-03-24T19:40:48.113Z,61.54
2023-03-24T19:43:14.844Z,61.51
2023-03-24T19:45:43.143Z,61.76
2023-03-24T19:48:10.865Z,62.12
2023-03-24T19:50:37.918Z,61.93
2023-03-24T19:53:04.787Z,62.16
2023-03-24T19:55:31.626Z,62.34
2023-03-24T19:57:59.714Z,62.61
2023-03-24T20:00:26.633Z,62.46
2023-03-24T20:02:53.701Z,62.86
2023-03-24T20:05:20.660Z,63.00
2023-03-24T20:07:48.066Z,63.02
2023-03-24T20:10:14.925Z,63.02
2023-03-24T20:12:41.779Z,63.09
2023-03-24T20:15:08.916Z,63.32
2023-03-24T20:17:37.869Z,63.28
2023-03-24T20:20:07.446Z,63.82
2023-03-24T20:22:34.842Z,63.56
2023-03-24T20:25:01.777Z,63.81
2023-03-24T20:27:28.632Z,63.52
2023-03-24T20:29:55.525Z,63.68
2023-03-24T20:32:25.546Z,63.86
2023-03-24T20:34:52.443Z,63.81
2023-03-24T20:37:19.152Z,64.22
2023-03-24T20:39:45.970Z,64.08
2023-03-24T20:42:12.853Z,64.23
2023-03-24T20:44:39.673Z,64.14
2023-03-24T20:47:06.607Z,64.19
2023-03-24T20:49:33.348Z,64.49
2023-03-24T20:52:00.222Z,64.42
2023-03-24T20:54:27.164Z,64.28
2023-03-24T20:56:54.230Z,64.20
2023-03-24T20:59:21.858Z,64.71
2023-03-24T21:01:51.481Z,64.36
2023-03-24T21:04:19.158Z,64.70
2023-03-24T21:06:46.155Z,64.53
2023-03-24T21:09:13.584Z,64.66
2023-03-24T21:11:40.544Z,64.50
2023-03-24T21:14:07.361Z,64.45
2023-03-24T21:16:34.375Z,64.80
2023-03-24T21:19:01.971Z,64.62
2023-03-24T21:21:29.269Z,64.72
2023-03-24T21:23:57.728Z,65.08
2023-03-24T21:26:25.461Z,65.09
2023-03-24T21:28:53.100Z,65.05
2023-03-24T21:31:24.802Z,65.30
2023-03-24T21:33:51.577Z,65.42
2023-03-24T21:36:18.422Z,65.37
2023-03-24T21:38:49.978Z,65.69
2023-03-24T21:41:17.817Z,65.71
2023-03-24T21:43:47.008Z,65.58
2023-03-24T21:46:20.764Z,65.74
2023-03-24T21:48:51.858Z,65.56
2023-03-24T21:51:26.311Z,65.82
2023-03-24T21:53:55.868Z,65.65
2023-03-24T21:56:23.347Z,65.65
2023-03-24T21:58:50.180Z,65.75
2023-03-24T22:01:17.336Z,65.87
2023-03-24T22:03:44.237Z,65.66
2023-03-24T22:06:11.860Z,66.06
2023-03-24T22:08:39.174Z,66.50
2023-03-24T22:11:06.349Z,66.37
2023-03-24T22:13:33.807Z,66.39
2023-03-24T22:16:02.424Z,66.21
2023-03-24T22:18:30.760Z,66.38
2023-03-24T22:21:01.287Z,66.50
2023-03-24T22:23:32.874Z,66.48
2023-03-24T22:26:10.071Z,66.52
2023-03-24T22:28:36.838Z,66.16
2023-03-24T22:31:07.970Z,66.27
2023-03-24T22:33:35.142Z,66.46
2023-03-24T22:36:02.383Z,66.51
2023-03-24T22:38:29.450Z,66.55
2023-03-24T22:41:00.831Z,66.23
2023-03-24T22:43:27.981Z,66.44
2023-03-24T22:45:54.738Z,66.09
2023-03-24T22:48:21.810Z,66.03
2023-03-24T22:50:48.830Z,65.84
2023-03-24T22:53:15.748Z,65.94
2023-03-24T22:55:44.874Z,66.19
2023-03-24T22:58:13.375Z,65.93
2023-03-24T23:00:45.208Z,66.03
2023-03-24T23:03:12.314Z,65.96
2023-03-24T23:05:46.028Z,66.31
2023-03-24T23:08:14.636Z,66.16
2023-03-24T23:10:42.757Z,66.05
2023-03-24T23:13:10.645Z,66.17
2023-03-24T23:15:42.927Z,66.40
2023-03-24T23:18:11.041Z,66.67
2023-03-24T23:20:37.883Z,66.85
2023-03-24T23:23:06.739Z,67.11
2023-03-24T23:25:34.765Z,67.22
2023-03-24T23:28:01.657Z,67.41
2023-03-24T23:30:28.617Z,67.65
2023-03-24T23:32:57.534Z,67.85
2023-03-24T23:35:24.432Z,67.78
2023-03-24T23:37:52.768Z,67.90
2023-03-24T23:40:19.753Z,68.01
2023-03-24T23:42:47.328Z,68.04
2023-03-24T23:45:15.861Z,68.13
2023-03-24T23:47:43.124Z,68.06
2023-03-24T23:50:10.745Z,68.39
2023-03-24T23:52:37.838Z,68.35
2023-03-24T23:55:05.004Z,68.58
2023-03-24T23:57:31.897Z,68.55
